Time;durP1;ratioP1;P1;durP2;ratioP2;P2;SDS_P1;SDS_P2;PMS_P1;PMS_P2;Temp;Humidity;BMP_temperature;BMP_pressure;BME280_temperature;BME280_humidity;BME280_pressure;Samples;Min_cycle;Max_cycle;Signal;HPM_P1;HPM_P2
2023/01/14 00:00:00;;;;;;;;;;;;;;;;;;5007095;28;20613;-76
2023/01/14 00:02:46;;;;;;;;;;;;;;;;;;5003340;28;19910;-77
2023/01/14 00:05:33;;;;;;;;;;;;;;;;;;5001925;28;20644;-77
2023/01/14 00:08:19;;;;;;;;;;;;;;;;;;5005077;28;19917;-77
2023/01/14 00:11:06;;;;;;;;;;;;;;;;;;5012037;28;19936;-76
2023/01/14 00:13:52;;;;;;;;;;;;;;;;;;5010261;28;20254;-77
2023/01/14 00:16:41;;;;;;;;;;;;;;;;;;5005087;28;19913;-76
2023/01/14 00:19:27;;;;;;;;;;;;;;;;;;5008636;28;19925;-76
2023/01/14 00:22:14;;;;;;;;;;;;;;;;;;5009765;28;19916;-76
2023/01/14 00:25:00;;;;;;;;;;;;;;;;;;5010072;28;19922;-81
2023/01/14 00:27:47;;;;;;;;;;;;;;;;;;5006347;28;20408;-77
2023/01/14 00:30:33;;;;;;;;;;;;;;;;;;5006418;28;19921;-75
2023/01/14 00:33:20;;;;;;;;;;;;;;;;;;5010134;28;19914;-77
2023/01/14 00:36:06;;;;;;;;;;;;;;;;;;5007284;28;19913;-76
2023/01/14 00:38:53;;;;;;;;;;;;;;;;;;5007235;28;19909;-77
2023/01/14 00:41:39;;;;;;;;;;;;;;;;;;5003853;28;19917;-78
2023/01/14 00:44:26;;;;;;;;;;;;;;;;;;5002782;28;20801;-77
2023/01/14 00:47:12;;;;;;;;;;;;;;;;;;5005262;28;19909;-76
2023/01/14 00:50:00;;;;;;;;;;;;;;;;;;5014325;28;19921;-76
2023/01/14 00:52:46;;;;;;;;;;;;;;;;;;5016926;28;19920;-76
2023/01/14 00:55:33;;;;;;;;;;;;;;;;;;5010795;28;19925;-76
2023/01/14 00:58:19;;;;;;;;;;;;;;;;;;5001554;28;20288;-77
2023/01/14 01:01:06;;;;;;;;;;;;;;;;;;5010432;28;19924;-77
2023/01/14 01:03:52;;;;;;;;;;;;;;;;;;5006684;28;20348;-76
2023/01/14 01:06:39;;;;;;;;;;;;;;;;;;5005984;28;19918;-75
2023/01/14 01:09:25;;;;;;;;;;;;;;;;;;5005407;28;19923;-76
2023/01/14 01:12:12;;;;;;;;;;;;;;;;;;5007684;28;19909;-76
2023/01/14 01:14:58;;;;;;;;;;;;;;;;;;5005739;28;19922;-76
2023/01/14 01:17:45;;;;;;;;;;;;;;;;;;5009576;28;19925;-75
2023/01/14 01:20:31;;;;;;;;;;;;;;;;;;5005740;28;19917;-76
2023/01/14 01:23:18;;;;;;;;;;;;;;;;;;5008613;28;19972;-75
2023/01/14 01:26:04;;;;;;;;;;;;;;;;;;5004825;28;19927;-75
2023/01/14 01:28:51;;;;;;;;;;;;;;;;;;5012919;28;19923;-75
2023/01/14 01:31:37;;;;;;;;;;;;;;;;;;5005999;28;19916;-76
2023/01/14 01:34:24;;;;;;;;;;;;;;;;;;5009271;28;20885;-76
2023/01/14 01:37:10;;;;;;;;;;;;;;;;;;5009469;28;19917;-75
2023/01/14 01:39:57;;;;;;;;;;;;;;;;;;5007328;28;19940;-74
2023/01/14 01:42:55;;;;;;;;;;;;;;;;;;5010117;28;20284;-75
2023/01/14 01:45:42;;;;;;;;;;;;;;;;;;5007872;28;19947;-76
2023/01/14 01:48:29;;;;;;;;;;;;;;;;;;5012284;28;19920;-77
2023/01/14 01:51:16;;;;;;;;;;;;;;;;;;5004290;28;19928;-76
2023/01/14 01:54:02;;;;;;;;;;;;;;;;;;5000935;28;19914;-80
2023/01/14 01:56:49;;;;;;;;;;;;;;;;;;5004009;28;19917;-76
2023/01/14 01:59:35;;;;;;;;;;;;;;;;;;5003775;28;20381;-77
2023/01/14 02:02:22;;;;;;;;;;;;;;;;;;5005763;28;19921;-76
2023/01/14 02:05:08;;;;;;;;;;;;;;;;;;5003742;28;20305;-77
2023/01/14 02:07:55;;;;;;;;;;;;;;;;;;5007754;28;19914;-76
2023/01/14 02:10:41;;;;;;;;;;;;;;;;;;5012378;28;19936;-76
2023/01/14 02:13:28;;;;;;;;;;;;;;;;;;5007711;28;19916;-77
2023/01/14 02:16:14;;;;;;;;;;;;;;;;;;5002597;28;19932;-76
2023/01/14 02:19:01;;;;;;;;;;;;;;;;;;5003363;28;19913;-75
2023/01/14 02:21:47;;;;;;;;;;;;;;;;;;5003546;28;19914;-75
2023/01/14 02:24:34;;;;;;;;;;;;;;;;;;4990757;28;19926;-75
2023/01/14 02:27:20;;;;;;;;;;;;;;;;;;5006571;28;19913;-76
2023/01/14 02:30:07;;;;;;;;;;;;;;;;;;4985274;28;19925;-76
2023/01/14 02:32:53;;;;;;;;;;;;;;;;;;5004781;28;20649;-76
2023/01/14 02:35:40;;;;;;;;;;;;;;;;;;5003320;28;19918;-76
2023/01/14 02:38:26;;;;;;;;;;;;;;;;;;5004904;28;19944;-76
2023/01/14 02:41:12;;;;;;;;;;;;;;;;;;5005537;28;20388;-76
2023/01/14 02:44:09;;;;;;;;;;;;;;;;;;5004384;28;19918;-77
2023/01/14 02:46:55;;;;;;;;;;;;;;;;;;5004686;28;19913;-76
2023/01/14 02:49:42;;;;;;;;;;;;;;;;;;5007145;28;19920;-77
2023/01/14 02:52:28;;;;;;;;;;;;;;;;;;5004812;28;19918;-77
2023/01/14 02:55:15;;;;;;;;;;;;;;;;;;5008626;28;20035;-76
2023/01/14 02:58:01;;;;;;;;;;;;;;;;;;5004058;28;19909;-77
2023/01/14 03:00:48;;;;;;;;;;;;;;;;;;5005903;28;21204;-77
2023/01/14 03:03:34;;;;;;;;;;;;;;;;;;5001694;28;19922;-77
2023/01/14 03:06:21;;;;;;;;;;;;;;;;;;5005842;28;19917;-77
2023/01/14 03:09:07;;;;;;;;;;;;;;;;;;5004549;28;19910;-76
2023/01/14 03:11:54;;;;;;;;;;;;;;;;;;4998190;28;19928;-77
2023/01/14 03:14:40;;;;;;;;;;;;;;;;;;5002203;28;20407;-77
2023/01/14 03:17:26;;;;;;;;;;;;;;;;;;5003023;28;19913;-77
2023/01/14 03:20:13;;;;;;;;;;;;;;;;;;4999974;28;19909;-77
2023/01/14 03:22:59;;;;;;;;;;;;;;;;;;5003766;28;19914;-78
2023/01/14 03:25:46;;;;;;;;;;;;;;;;;;5004686;28;19928;-77
2023/01/14 03:28:32;;;;;;;;;;;;;;;;;;5004782;28;19910;-79
2023/01/14 03:31:19;;;;;;;;;;;;;;;;;;5006488;28;20582;-77
2023/01/14 03:34:05;;;;;;;;;;;;;;;;;;5011554;28;20766;-77
2023/01/14 03:36:52;;;;;;;;;;;;;;;;;;5003944;28;19913;-78
2023/01/14 03:39:38;;;;;;;;;;;;;;;;;;5005920;28;19920;-77
2023/01/14 03:42:25;;;;;;;;;;;;;;;;;;5010139;28;20297;-78
2023/01/14 03:45:11;;;;;;;;;;;;;;;;;;5002814;28;19925;-77
2023/01/14 03:47:58;;;;;;;;;;;;;;;;;;5003863;28;19921;-78
2023/01/14 03:50:44;;;;;;;;;;;;;;;;;;5003987;28;19936;-80
2023/01/14 03:53:31;;;;;;;;;;;;;;;;;;5004851;28;19913;-80
2023/01/14 03:56:17;;;;;;;;;;;;;;;;;;5001005;28;19924;-78
2023/01/14 03:59:04;;;;;;;;;;;;;;;;;;5002524;28;20510;-78
2023/01/14 04:01:50;;;;;;;;;;;;;;;;;;5003643;28;19960;-78
2023/01/14 04:04:37;;;;;;;;;;;;;;;;;;5003979;28;19921;-77
2023/01/14 04:07:23;;;;;;;;;;;;;;;;;;5003671;28;19920;-77
2023/01/14 04:10:10;;;;;;;;;;;;;;;;;;5004290;28;19909;-77
2023/01/14 04:16:01;;;;;;;;;;;;;;;;;;5002500;28;20369;-78
2023/01/14 04:18:48;;;;;;;;;;;;;;;;;;5004126;28;19910;-76
2023/01/14 04:21:34;;;;;;;;;;;;;;;;;;5003612;28;20285;-77
2023/01/14 04:24:21;;;;;;;;;;;;;;;;;;5002310;28;19921;-77
2023/01/14 04:27:07;;;;;;;;;;;;;;;;;;5004016;28;19921;-77
2023/01/14 04:29:54;;;;;;;;;;;;;;;;;;5006836;28;19917;-78
2023/01/14 04:32:40;;;;;;;;;;;;;;;;;;5012258;28;19914;-78
2023/01/14 04:35:27;;;;;;;;;;;;;;;;;;5008407;28;20373;-77
2023/01/14 04:38:13;;;;;;;;;;;;;;;;;;5009416;28;19920;-77
2023/01/14 04:41:00;;;;;;;;;;;;;;;;;;5016065;28;19913;-78
2023/01/14 04:43:46;;;;;;;;;;;;;;;;;;4998901;28;19923;-78
2023/01/14 04:46:32;;;;;;;;;;;;;;;;;;5010979;28;19918;-78
2023/01/14 04:49:19;;;;;;;;;;;;;;;;;;5014957;28;20000;-77
2023/01/14 04:52:06;;;;;;;;;;;;;;;;;;5007973;28;19924;-78
2023/01/14 04:54:52;;;;;;;;;;;;;;;;;;5010432;28;19925;-78
2023/01/14 04:57:39;;;;;;;;;;;;;;;;;;5012139;28;19921;-78
2023/01/14 05:00:25;;;;;;;;;;;;;;;;;;5007028;28;19913;-78
2023/01/14 05:03:12;;;;;;;;;;;;;;;;;;5006415;28;19924;-77
2023/01/14 05:05:58;;;;;;;;;;;;;;;;;;5006622;28;20373;-77
2023/01/14 05:08:47;;;;;;;;;;;;;;;;;;5001057;28;19913;-77
2023/01/14 05:11:33;;;;;;;;;;;;;;;;;;5008527;28;19921;-77
2023/01/14 05:14:20;;;;;;;;;;;;;;;;;;4992532;28;19910;-79
2023/01/14 05:17:06;;;;;;;;;;;;;;;;;;5007072;28;19917;-78
2023/01/14 05:19:53;;;;;;;;;;;;;;;;;;4998372;28;19941;-78
2023/01/14 05:22:39;;;;;;;;;;;;;;;;;;5006953;28;20408;-79
2023/01/14 05:25:26;;;;;;;;;;;;;;;;;;5006632;28;19921;-78
2023/01/14 05:28:12;;;;;;;;;;;;;;;;;;5004757;28;19918;-79
2023/01/14 05:30:59;;;;;;;;;;;;;;;;;;5005719;28;19913;-79
2023/01/14 05:33:45;;;;;;;;;;;;;;;;;;5006361;28;19923;-78
2023/01/14 05:36:32;;;;;;;;;;;;;;;;;;5000561;28;19909;-79
2023/01/14 05:39:18;;;;;;;;;;;;;;;;;;4993638;28;19920;-77
2023/01/14 05:48:15;;;;;;;;;;;;;;;;;;5006527;28;19920;-77
2023/01/14 05:51:01;;;;;;;;;;;;;;;;;;5006448;28;19924;-78
2023/01/14 05:53:48;;;;;;;;;;;;;;;;;;5005412;28;19918;-80
2023/01/14 05:56:34;;;;;;;;;;;;;;;;;;5007591;28;19928;-76
2023/01/14 05:59:21;;;;;;;;;;;;;;;;;;5006253;28;19920;-77
2023/01/14 06:08:17;;;;;;;;;;;;;;;;;;5004642;28;19913;-76
2023/01/14 06:11:04;;;;;;;;;;;;;;;;;;5004848;28;19924;-75
2023/01/14 06:13:51;;;;;;;;;;;;;;;;;;5005663;28;19914;-76
2023/01/14 06:16:41;;;;;;;;;;;;;;;;;;5005064;28;19917;-75
2023/01/14 06:19:27;;;;;;;;;;;;;;;;;;5004887;28;19936;-77
2023/01/14 06:22:14;;;;;;;;;;;;;;;;;;5005013;28;20297;-76
2023/01/14 06:25:00;;;;;;;;;;;;;;;;;;5004292;28;19926;-76
2023/01/14 06:27:47;;;;;;;;;;;;;;;;;;5004278;28;19914;-76
2023/01/14 06:30:33;;;;;;;;;;;;;;;;;;5004583;28;20364;-77
2023/01/14 06:33:20;;;;;;;;;;;;;;;;;;5010430;28;19913;-76
2023/01/14 06:36:06;;;;;;;;;;;;;;;;;;5001984;28;20356;-76
2023/01/14 06:38:53;;;;;;;;;;;;;;;;;;5005309;28;19919;-76
2023/01/14 06:41:39;;;;;;;;;;;;;;;;;;5003488;28;19917;-75
2023/01/14 06:44:27;;;;;;;;;;;;;;;;;;5005818;28;19922;-75
2023/01/14 06:47:13;;;;;;;;;;;;;;;;;;5007628;28;19924;-75
2023/01/14 06:50:00;;;;;;;;;;;;;;;;;;5002595;28;20385;-75
2023/01/14 06:52:48;;;;;;;;;;;;;;;;;;5006318;28;19924;-76
2023/01/14 06:55:35;;;;;;;;;;;;;;;;;;5004969;28;19925;-76
2023/01/14 06:58:21;;;;;;;;;;;;;;;;;;5011282;28;19947;-77
2023/01/14 07:01:09;;;;;;;;;;;;;;;;;;5005390;28;19916;-76
2023/01/14 07:03:56;;;;;;;;;;;;;;;;;;5003493;28;19917;-76
2023/01/14 07:06:42;;;;;;;;;;;;;;;;;;5004282;28;20333;-76
2023/01/14 07:09:28;;;;;;;;;;;;;;;;;;5003995;28;19917;-77
2023/01/14 07:12:15;;;;;;;;;;;;;;;;;;4999238;28;19910;-77
2023/01/14 07:15:01;;;;;;;;;;;;;;;;;;5005678;28;20376;-78
2023/01/14 07:17:48;;;;;;;;;;;;;;;;;;5006069;28;19917;-77
2023/01/14 07:20:34;;;;;;;;;;;;;;;;;;5007279;28;19919;-77
2023/01/14 07:23:21;;;;;;;;;;;;;;;;;;5004749;28;19913;-75
2023/01/14 07:26:07;;;;;;;;;;;;;;;;;;5003320;28;19928;-75
2023/01/14 07:28:54;;;;;;;;;;;;;;;;;;5013338;28;19917;-75
2023/01/14 07:31:41;;;;;;;;;;;;;;;;;;4999441;28;19924;-76
2023/01/14 07:34:27;;;;;;;;;;;;;;;;;;5002363;28;19913;-76
2023/01/14 07:37:14;;;;;;;;;;;;;;;;;;4999351;28;19914;-76
2023/01/14 07:40:00;;;;;;;;;;;;;;;;;;5005128;28;20393;-76
2023/01/14 07:42:47;;;;;;;;;;;;;;;;;;5014325;28;19913;-76
2023/01/14 07:45:33;;;;;;;;;;;;;;;;;;5020124;28;19928;-76
2023/01/14 07:48:20;;;;;;;;;;;;;;;;;;5000842;28;19921;-75
2023/01/14 07:51:08;;;;;;;;;;;;;;;;;;5015318;28;19923;-76
2023/01/14 07:53:54;;;;;;;;;;;;;;;;;;5016093;28;19913;-76
2023/01/14 07:56:41;;;;;;;;;;;;;;;;;;5008933;28;20393;-76
2023/01/14 07:59:27;;;;;;;;;;;;;;;;;;5001021;28;19918;-76
2023/01/14 08:02:14;;;;;;;;;;;;;;;;;;5004833;28;19925;-76
2023/01/14 08:05:00;;;;;;;;;;;;;;;;;;5006705;28;19933;-77
2023/01/14 08:07:47;;;;;;;;;;;;;;;;;;5008955;28;19917;-77
2023/01/14 08:10:33;;;;;;;;;;;;;;;;;;5009794;28;19920;-79
2023/01/14 08:13:20;;;;;;;;;;;;;;;;;;5009908;28;20796;-79
2023/01/14 08:16:09;;;;;;;;;;;;;;;;;;5005237;28;19928;-78
2023/01/14 08:18:55;;;;;;;;;;;;;;;;;;5012105;28;20297;-77
2023/01/14 08:21:42;;;;;;;;;;;;;;;;;;5006142;28;19924;-77
2023/01/14 08:24:28;;;;;;;;;;;;;;;;;;5008966;28;20345;-79
2023/01/14 08:27:15;;;;;;;;;;;;;;;;;;5007247;28;19925;-78
2023/01/14 08:30:01;;;;;;;;;;;;;;;;;;5008063;28;19921;-78
2023/01/14 08:32:47;;;;;;;;;;;;;;;;;;5003067;28;19918;-78
2023/01/14 08:35:34;;;;;;;;;;;;;;;;;;5007975;28;19963;-78
2023/01/14 08:38:20;;;;;;;;;;;;;;;;;;5002694;28;20369;-78
2023/01/14 08:41:07;;;;;;;;;;;;;;;;;;4987322;28;19916;-83
2023/01/14 08:43:54;;;;;;;;;;;;;;;;;;5008865;28;19917;-79
2023/01/14 08:46:41;;;;;;;;;;;;;;;;;;5008309;28;19987;-81
2023/01/14 08:49:28;;;;;;;;;;;;;;;;;;5006729;28;19934;-79
2023/01/14 08:52:15;;;;;;;;;;;;;;;;;;5010647;28;19923;-80
2023/01/14 08:55:02;;;;;;;;;;;;;;;;;;5008496;28;19926;-82
2023/01/14 08:57:48;;;;;;;;;;;;;;;;;;5006601;28;19910;-78
2023/01/14 09:00:35;;;;;;;;;;;;;;;;;;5009128;28;19923;-78
2023/01/14 09:03:21;;;;;;;;;;;;;;;;;;5000177;28;19917;-78
2023/01/14 09:06:08;;;;;;;;;;;;;;;;;;5004693;28;19921;-78
2023/01/14 09:18:26;;;;;;;;;;;;;;;;;;5006119;28;19925;-79
2023/01/14 09:21:12;;;;;;;;;;;;;;;;;;5004999;28;19913;-83
2023/01/14 09:23:59;;;;;;;;;;;;;;;;;;5007118;28;19917;-80
2023/01/14 09:26:45;;;;;;;;;;;;;;;;;;5006736;28;20570;-77
2023/01/14 09:29:32;;;;;;;;;;;;;;;;;;5007363;28;19918;-80
2023/01/14 09:32:18;;;;;;;;;;;;;;;;;;5006251;28;20258;-82
2023/01/14 09:35:05;;;;;;;;;;;;;;;;;;5005241;28;20320;-83
2023/01/14 09:37:51;;;;;;;;;;;;;;;;;;5011260;28;19921;-80
2023/01/14 09:40:38;;;;;;;;;;;;;;;;;;5005622;28;19921;-85
2023/01/14 09:43:24;;;;;;;;;;;;;;;;;;5006058;28;19939;-84
2023/01/14 09:46:11;;;;;;;;;;;;;;;;;;5005461;28;19926;-79
2023/01/14 09:48:57;;;;;;;;;;;;;;;;;;5006237;28;20293;-79
2023/01/14 09:51:44;;;;;;;;;;;;;;;;;;5006740;28;20530;-79
2023/01/14 09:54:30;;;;;;;;;;;;;;;;;;5005094;28;19936;-77
2023/01/14 09:57:17;;;;;;;;;;;;;;;;;;5009002;28;20300;-77
2023/01/14 10:00:03;;;;;;;;;;;;;;;;;;5002708;28;19920;-78
2023/01/14 10:02:50;;;;;;;;;;;;;;;;;;5006738;28;19993;-77
2023/01/14 10:05:36;;;;;;;;;;;;;;;;;;5011556;28;19921;-79
2023/01/14 10:08:23;;;;;;;;;;;;;;;;;;5009466;28;20017;-79
2023/01/14 10:11:09;;;;;;;;;;;;;;;;;;5014423;28;19924;-79
2023/01/14 10:13:56;;;;;;;;;;;;;;;;;;5009061;28;19936;-79
2023/01/14 10:16:42;;;;;;;;;;;;;;;;;;5010665;28;19920;-78
2023/01/14 10:19:29;;;;;;;;;;;;;;;;;;5004545;28;19914;-79
2023/01/14 10:22:15;;;;;;;;;;;;;;;;;;5003252;28;19917;-83
2023/01/14 10:25:04;;;;;;;;;;;;;;;;;;5004797;28;19934;-80
2023/01/14 10:27:50;;;;;;;;;;;;;;;;;;5002866;28;19913;-79
2023/01/14 10:30:38;;;;;;;;;;;;;;;;;;5004120;28;19936;-78
2023/01/14 10:33:27;;;;;;;;;;;;;;;;;;5000502;28;19922;-79
2023/01/14 10:36:13;;;;;;;;;;;;;;;;;;5005393;28;19914;-77
2023/01/14 10:39:00;;;;;;;;;;;;;;;;;;5010342;28;19913;-79
2023/01/14 10:41:49;;;;;;;;;;;;;;;;;;5002385;28;19924;-79
2023/01/14 10:44:38;;;;;;;;;;;;;;;;;;5001978;28;19925;-82
2023/01/14 10:47:24;;;;;;;;;;;;;;;;;;5000932;28;19917;-79
2023/01/14 10:50:17;;;;;;;;;;;;;;;;;;5013814;28;20008;-83
2023/01/14 10:53:03;;;;;;;;;;;;;;;;;;5007500;28;19917;-77
2023/01/14 10:55:50;;;;;;;;;;;;;;;;;;5007591;28;20018;-79
2023/01/14 10:58:36;;;;;;;;;;;;;;;;;;5011338;28;19909;-80
2023/01/14 11:01:23;;;;;;;;;;;;;;;;;;5009634;28;19940;-80
2023/01/14 11:04:09;;;;;;;;;;;;;;;;;;5010618;28;19913;-80
2023/01/14 11:06:56;;;;;;;;;;;;;;;;;;5014825;28;19919;-80
2023/01/14 11:09:44;;;;;;;;;;;;;;;;;;5009020;28;20280;-83
2023/01/14 11:12:31;;;;;;;;;;;;;;;;;;5005201;28;19928;-79
2023/01/14 11:15:17;;;;;;;;;;;;;;;;;;5000696;28;19924;-80
2023/01/14 11:18:04;;;;;;;;;;;;;;;;;;4989326;28;20411;-80
2023/01/14 11:20:50;;;;;;;;;;;;;;;;;;5006931;28;19913;-80
2023/01/14 11:23:37;;;;;;;;;;;;;;;;;;5002241;28;19922;-81
2023/01/14 11:26:23;;;;;;;;;;;;;;;;;;5002314;28;19921;-80
2023/01/14 11:29:10;;;;;;;;;;;;;;;;;;4988271;28;19914;-79
2023/01/14 11:31:56;;;;;;;;;;;;;;;;;;5004897;28;19924;-79
2023/01/14 11:34:43;;;;;;;;;;;;;;;;;;5002452;28;19921;-79
2023/01/14 11:37:29;;;;;;;;;;;;;;;;;;5010424;28;19918;-80
2023/01/14 11:40:15;;;;;;;;;;;;;;;;;;5006850;28;19917;-78
2023/01/14 11:43:02;;;;;;;;;;;;;;;;;;5003004;28;19918;-79
2023/01/14 11:45:48;;;;;;;;;;;;;;;;;;4991407;28;19928;-80
2023/01/14 11:48:35;;;;;;;;;;;;;;;;;;4988391;28;19917;-80
2023/01/14 11:51:21;;;;;;;;;;;;;;;;;;5006280;28;19920;-83
2023/01/14 11:54:08;;;;;;;;;;;;;;;;;;5008534;28;20032;-79
2023/01/14 11:56:54;;;;;;;;;;;;;;;;;;5003794;28;19917;-80
2023/01/14 11:59:41;;;;;;;;;;;;;;;;;;5003064;28;19917;-79
2023/01/14 12:02:27;;;;;;;;;;;;;;;;;;4998726;28;19913;-80
2023/01/14 12:05:14;;;;;;;;;;;;;;;;;;5003236;28;19924;-79
2023/01/14 12:08:01;;;;;;;;;;;;;;;;;;5002693;28;19922;-79
2023/01/14 12:10:48;;;;;;;;;;;;;;;;;;5008777;28;19914;-79
2023/01/14 12:16:53;;;;;;;;;;;;;;;;;;5009817;28;19917;-80
2023/01/14 12:19:40;;;;;;;;;;;;;;;;;;5003689;28;20553;-79
2023/01/14 12:22:26;;;;;;;;;;;;;;;;;;5011375;28;19938;-81
2023/01/14 12:25:13;;;;;;;;;;;;;;;;;;4999989;28;19929;-79
2023/01/14 12:27:59;;;;;;;;;;;;;;;;;;5002408;28;19914;-80
2023/01/14 12:30:46;;;;;;;;;;;;;;;;;;5003225;28;20274;-79
2023/01/14 12:33:33;;;;;;;;;;;;;;;;;;5005717;28;19914;-79
2023/01/14 12:36:19;;;;;;;;;;;;;;;;;;5008465;28;19913;-81
2023/01/14 12:48:21;;;;;;;;;;;;;;;;;;5006839;28;19921;-80
2023/01/14 12:51:08;;;;;;;;;;;;;;;;;;5003330;28;19913;-80
2023/01/14 12:53:54;;;;;;;;;;;;;;;;;;5012673;28;19912;-79
2023/01/14 12:56:41;;;;;;;;;;;;;;;;;;5011351;28;20318;-79
2023/01/14 12:59:27;;;;;;;;;;;;;;;;;;4999303;28;19925;-79
2023/01/14 13:02:14;;;;;;;;;;;;;;;;;;5011609;28;19913;-79
2023/01/14 13:05:00;;;;;;;;;;;;;;;;;;4998621;28;19926;-80
2023/01/14 13:07:47;;;;;;;;;;;;;;;;;;5006299;28;19920;-80
2023/01/14 13:10:33;;;;;;;;;;;;;;;;;;4990711;28;20404;-80
2023/01/14 13:13:20;;;;;;;;;;;;;;;;;;5006737;28;19910;-79
2023/01/14 13:16:06;;;;;;;;;;;;;;;;;;4992294;28;20560;-78
2023/01/14 13:18:53;;;;;;;;;;;;;;;;;;5007102;28;19909;-79
2023/01/14 13:21:39;;;;;;;;;;;;;;;;;;5006260;28;19925;-79
2023/01/14 13:24:26;;;;;;;;;;;;;;;;;;4999403;28;19952;-78
2023/01/14 13:27:12;;;;;;;;;;;;;;;;;;5011010;28;19920;-81
2023/01/14 13:29:59;;;;;;;;;;;;;;;;;;5007661;28;19952;-80
2023/01/14 13:32:45;;;;;;;;;;;;;;;;;;5010589;28;19913;-79
2023/01/14 13:35:34;;;;;;;;;;;;;;;;;;5007134;28;19921;-81
2023/01/14 13:38:21;;;;;;;;;;;;;;;;;;5004971;28;19928;-81
2023/01/14 13:41:07;;;;;;;;;;;;;;;;;;5005608;28;20377;-80
2023/01/14 13:43:54;;;;;;;;;;;;;;;;;;5002827;28;19920;-80
2023/01/14 13:46:40;;;;;;;;;;;;;;;;;;5008803;28;19940;-81
2023/01/14 13:49:27;;;;;;;;;;;;;;;;;;5013305;28;19920;-81
2023/01/14 13:52:13;;;;;;;;;;;;;;;;;;4998381;28;20009;-80
2023/01/14 13:55:00;;;;;;;;;;;;;;;;;;5005615;28;19925;-81
2023/01/14 13:57:49;;;;;;;;;;;;;;;;;;5017204;28;19918;-80
2023/01/14 14:00:37;;;;;;;;;;;;;;;;;;5022831;28;19914;-80
2023/01/14 14:03:24;;;;;;;;;;;;;;;;;;5017423;28;19910;-80
2023/01/14 14:06:10;;;;;;;;;;;;;;;;;;5015310;28;20296;-82
2023/01/14 14:08:57;;;;;;;;;;;;;;;;;;5010369;28;19915;-84
2023/01/14 14:11:44;;;;;;;;;;;;;;;;;;5005679;28;20399;-80
2023/01/14 14:14:30;;;;;;;;;;;;;;;;;;5009941;28;19913;-80
2023/01/14 14:17:16;;;;;;;;;;;;;;;;;;5006539;28;19929;-79
2023/01/14 14:20:03;;;;;;;;;;;;;;;;;;5012113;28;19910;-78
2023/01/14 14:22:49;;;;;;;;;;;;;;;;;;5010181;28;19917;-79
2023/01/14 14:25:36;;;;;;;;;;;;;;;;;;5002536;28;19921;-82
2023/01/14 14:28:22;;;;;;;;;;;;;;;;;;5006702;28;20344;-85
2023/01/14 14:31:13;;;;;;;;;;;;;;;;;;5009007;28;20439;-87
2023/01/14 14:33:59;;;;;;;;;;;;;;;;;;4995510;28;19913;-85
2023/01/14 14:36:46;;;;;;;;;;;;;;;;;;5001845;28;19924;-86
2023/01/14 14:39:32;;;;;;;;;;;;;;;;;;5006258;28;19920;-87
2023/01/14 14:42:19;;;;;;;;;;;;;;;;;;5002886;28;19913;-87
2023/01/14 14:45:05;;;;;;;;;;;;;;;;;;4996765;28;21229;-85
2023/01/14 14:47:52;;;;;;;;;;;;;;;;;;5000206;28;19922;-86
2023/01/14 14:50:38;;;;;;;;;;;;;;;;;;5002224;28;19925;-87
2023/01/14 14:53:30;;;;;;;;;;;;;;;;;;5004803;28;19913;-86
2023/01/14 14:56:17;;;;;;;;;;;;;;;;;;5007160;28;19928;-86
2023/01/14 14:59:03;;;;;;;;;;;;;;;;;;5003537;28;19914;-88
2023/01/14 15:01:50;;;;;;;;;;;;;;;;;;5007424;28;19918;-86
2023/01/14 15:04:36;;;;;;;;;;;;;;;;;;5012694;28;20447;-86
2023/01/14 15:07:22;;;;;;;;;;;;;;;;;;5013959;28;19917;-87
2023/01/14 15:10:09;;;;;;;;;;;;;;;;;;5006276;28;19920;-87
2023/01/14 15:12:55;;;;;;;;;;;;;;;;;;5007878;28;19928;-86
2023/01/14 15:15:42;;;;;;;;;;;;;;;;;;4992454;28;19925;-86
2023/01/14 15:18:28;;;;;;;;;;;;;;;;;;5008667;28;20558;-86
2023/01/14 15:21:18;;;;;;;;;;;;;;;;;;5012355;28;19919;-86
2023/01/14 15:24:05;;;;;;;;;;;;;;;;;;5008758;28;20863;-86
2023/01/14 15:26:51;;;;;;;;;;;;;;;;;;5008091;28;19922;-86
2023/01/14 15:29:38;;;;;;;;;;;;;;;;;;5004531;28;20281;-85
2023/01/14 15:32:24;;;;;;;;;;;;;;;;;;5007565;28;19914;-85
2023/01/14 15:35:11;;;;;;;;;;;;;;;;;;5007502;28;19919;-85
2023/01/14 15:37:57;;;;;;;;;;;;;;;;;;5006851;28;19917;-87
2023/01/14 15:40:44;;;;;;;;;;;;;;;;;;5013063;28;19920;-85
2023/01/14 15:43:31;;;;;;;;;;;;;;;;;;5005024;28;19921;-85
2023/01/14 15:46:18;;;;;;;;;;;;;;;;;;4991796;28;19928;-85
2023/01/14 15:49:04;;;;;;;;;;;;;;;;;;5007821;28;19917;-85
2023/01/14 15:51:51;;;;;;;;;;;;;;;;;;5004124;28;19913;-86
2023/01/14 15:54:38;;;;;;;;;;;;;;;;;;5011972;28;19930;-86
2023/01/14 15:57:25;;;;;;;;;;;;;;;;;;5004424;28;19920;-86
2023/01/14 16:00:12;;;;;;;;;;;;;;;;;;5004416;28;19913;-86
2023/01/14 16:03:00;;;;;;;;;;;;;;;;;;5014501;28;19917;-86
2023/01/14 16:05:47;;;;;;;;;;;;;;;;;;5016967;28;19921;-87
2023/01/14 16:08:33;;;;;;;;;;;;;;;;;;5024217;28;19923;-87
2023/01/14 16:11:20;;;;;;;;;;;;;;;;;;5012068;28;19917;-87
2023/01/14 16:14:06;;;;;;;;;;;;;;;;;;5013106;28;19913;-85
2023/01/14 16:16:53;;;;;;;;;;;;;;;;;;5009101;28;19918;-86
2023/01/14 16:19:39;;;;;;;;;;;;;;;;;;5006401;28;19913;-85
2023/01/14 16:22:26;;;;;;;;;;;;;;;;;;5009114;28;19917;-88
2023/01/14 16:25:12;;;;;;;;;;;;;;;;;;5009253;28;19923;-88
2023/01/14 16:27:59;;;;;;;;;;;;;;;;;;5008684;28;19926;-86
2023/01/14 16:30:45;;;;;;;;;;;;;;;;;;5011270;28;20293;-82
2023/01/14 16:33:32;;;;;;;;;;;;;;;;;;5004536;28;20289;-85
2023/01/14 16:36:18;;;;;;;;;;;;;;;;;;5014023;28;20348;-83
2023/01/14 16:39:05;;;;;;;;;;;;;;;;;;5013509;28;20373;-86
2023/01/14 16:41:52;;;;;;;;;;;;;;;;;;5009226;28;19918;-86
2023/01/14 16:44:38;;;;;;;;;;;;;;;;;;5011785;28;19919;-87
2023/01/14 16:47:25;;;;;;;;;;;;;;;;;;5008321;28;20470;-86
2023/01/14 16:50:11;;;;;;;;;;;;;;;;;;5012890;28;19917;-86
2023/01/14 16:52:58;;;;;;;;;;;;;;;;;;5008754;28;19918;-84
2023/01/14 16:55:44;;;;;;;;;;;;;;;;;;5008538;28;20446;-88
2023/01/14 16:58:31;;;;;;;;;;;;;;;;;;5004288;28;19917;-85
2023/01/14 17:01:17;;;;;;;;;;;;;;;;;;5006962;28;19918;-86
2023/01/14 17:04:04;;;;;;;;;;;;;;;;;;5018447;28;19928;-86
2023/01/14 17:06:50;;;;;;;;;;;;;;;;;;5024355;28;19905;-87
2023/01/14 17:09:38;;;;;;;;;;;;;;;;;;5034114;28;19901;-79
2023/01/14 17:12:39;;;;;;;;;;;;;;;;;;5026354;28;20366;-84
2023/01/14 17:15:26;;;;;;;;;;;;;;;;;;5010000;28;19913;-86
2023/01/14 17:18:13;;;;;;;;;;;;;;;;;;5014812;28;20668;-84
2023/01/14 17:20:59;;;;;;;;;;;;;;;;;;5014630;28;19914;-79
2023/01/14 17:23:46;;;;;;;;;;;;;;;;;;5015462;28;19939;-86
2023/01/14 17:26:32;;;;;;;;;;;;;;;;;;5012215;28;19925;-85
2023/01/14 17:29:19;;;;;;;;;;;;;;;;;;4999294;28;19910;-86
2023/01/14 17:32:05;;;;;;;;;;;;;;;;;;5018887;28;20313;-86
2023/01/14 17:34:52;;;;;;;;;;;;;;;;;;5005360;28;19917;-86
2023/01/14 17:37:39;;;;;;;;;;;;;;;;;;5010791;28;19920;-85
2023/01/14 17:40:27;;;;;;;;;;;;;;;;;;5008276;28;19936;-88
2023/01/14 17:43:14;;;;;;;;;;;;;;;;;;5007462;28;20333;-86
2023/01/14 17:46:00;;;;;;;;;;;;;;;;;;5008092;28;19922;-84
2023/01/14 17:48:47;;;;;;;;;;;;;;;;;;5009850;28;19914;-85
2023/01/14 17:51:34;;;;;;;;;;;;;;;;;;5005959;28;20292;-84
2023/01/14 17:54:21;;;;;;;;;;;;;;;;;;5007540;28;19940;-84
2023/01/14 17:57:07;;;;;;;;;;;;;;;;;;5011255;28;19917;-82
2023/01/14 17:59:55;;;;;;;;;;;;;;;;;;5007403;28;19920;-82
2023/01/14 18:02:41;;;;;;;;;;;;;;;;;;4990857;28;20349;-85
2023/01/14 18:05:28;;;;;;;;;;;;;;;;;;5009531;28;19925;-83
2023/01/14 18:08:15;;;;;;;;;;;;;;;;;;5012921;28;19913;-85
2023/01/14 18:11:01;;;;;;;;;;;;;;;;;;5002436;28;19913;-84
2023/01/14 18:13:48;;;;;;;;;;;;;;;;;;5005214;28;20016;-83
2023/01/14 18:16:35;;;;;;;;;;;;;;;;;;5004107;28;19918;-83
2023/01/14 18:19:21;;;;;;;;;;;;;;;;;;5007897;28;19944;-83
2023/01/14 18:22:08;;;;;;;;;;;;;;;;;;4991693;28;19924;-85
2023/01/14 18:24:54;;;;;;;;;;;;;;;;;;5005335;28;20681;-83
2023/01/14 18:27:41;;;;;;;;;;;;;;;;;;5013579;28;19914;-83
2023/01/14 18:30:30;;;;;;;;;;;;;;;;;;5005288;28;19920;-84
2023/01/14 18:33:16;;;;;;;;;;;;;;;;;;5009551;28;19920;-84
2023/01/14 18:36:03;;;;;;;;;;;;;;;;;;5007736;28;19921;-84
2023/01/14 18:38:49;;;;;;;;;;;;;;;;;;5007069;28;19914;-85
2023/01/14 18:41:36;;;;;;;;;;;;;;;;;;5005379;28;19913;-85
2023/01/14 18:44:22;;;;;;;;;;;;;;;;;;5005300;28;19940;-84
2023/01/14 18:47:10;;;;;;;;;;;;;;;;;;5009842;28;19925;-83
2023/01/14 18:49:57;;;;;;;;;;;;;;;;;;5005679;28;20377;-84
2023/01/14 18:52:43;;;;;;;;;;;;;;;;;;4990947;28;19925;-87
2023/01/14 18:55:30;;;;;;;;;;;;;;;;;;5004964;28;20364;-89
2023/01/14 18:58:16;;;;;;;;;;;;;;;;;;5010892;28;19917;-87
2023/01/14 19:01:03;;;;;;;;;;;;;;;;;;5004685;28;19928;-86
2023/01/14 19:03:49;;;;;;;;;;;;;;;;;;5003029;28;19917;-88
2023/01/14 19:06:36;;;;;;;;;;;;;;;;;;5001933;28;19921;-87
2023/01/14 19:09:22;;;;;;;;;;;;;;;;;;5004737;28;19949;-86
2023/01/14 19:12:10;;;;;;;;;;;;;;;;;;5003997;28;19925;-88
2023/01/14 19:14:56;;;;;;;;;;;;;;;;;;5003320;28;20400;-85
2023/01/14 19:17:42;;;;;;;;;;;;;;;;;;5003942;28;20074;-89
2023/01/14 19:20:29;;;;;;;;;;;;;;;;;;5006844;28;19924;-92
2023/01/14 19:23:15;;;;;;;;;;;;;;;;;;5010987;28;19924;-90
2023/01/14 19:26:02;;;;;;;;;;;;;;;;;;4999121;28;19926;-89
2023/01/14 19:28:48;;;;;;;;;;;;;;;;;;4998664;28;20318;-90
2023/01/14 19:31:35;;;;;;;;;;;;;;;;;;5012943;28;20284;-90
2023/01/14 19:34:21;;;;;;;;;;;;;;;;;;5008227;28;19917;-90